Time;durP1;ratioP1;P1;durP2;ratioP2;P2;SDS_P1;SDS_P2;PMS_P1;PMS_P2;Temp;Humidity;BMP_temperature;BMP_pressure;BME280_temperature;BME280_humidity;BME280_pressure;Samples;Min_cycle;Max_cycle;Signal;HPM_P1;HPM_P2
2021/06/06 00:01:13;;;;;;;11.65;9.00;;;;;;;16.48;75.49;100351.66;1741935;81;20996;-50
2021/06/06 00:03:45;;;;;;;9.15;7.62;;;;;;;16.46;75.33;100353.15;1741162;81;20995;-49
2021/06/06 00:06:25;;;;;;;11.65;7.90;;;;;;;16.44;75.10;100343.00;1742582;80;20893;-48
2021/06/06 00:08:52;;;;;;;11.53;9.08;;;;;;;16.43;74.99;100349.38;1736832;81;21428;-48
2021/06/06 00:11:25;;;;;;;9.83;8.83;;;;;;;16.42;74.92;100349.00;1744008;80;21416;-48
2021/06/06 00:13:55;;;;;;;10.50;7.60;;;;;;;16.40;74.90;100346.92;1743247;80;20960;-48
2021/06/06 00:16:26;;;;;;;;;;;;;;;16.37;74.88;100349.39;1711440;82;20980;-48
2021/06/06 00:18:53;;;;;;;10.78;8.90;;;;;;;16.34;74.93;100344.77;1698115;83;20648;-52
2021/06/06 00:21:20;;;;;;;11.08;8.38;;;;;;;16.29;74.96;100342.95;1674955;83;21336;-53
2021/06/06 00:23:48;;;;;;;12.80;8.23;;;;;;;16.25;74.99;100338.31;1689479;83;21522;-49
2021/06/06 00:26:15;;;;;;;9.33;8.28;;;;;;;16.23;75.01;100344.34;1718975;82;20953;-48
2021/06/06 00:28:42;;;;;;;9.30;8.25;;;;;;;16.20;75.05;100339.19;1721829;82;20988;-48
2021/06/06 00:31:10;;;;;;;12.30;7.97;;;;;;;16.18;75.17;100338.49;1716296;82;20944;-48
2021/06/06 00:33:37;;;;;;;11.30;8.15;;;;;;;16.18;75.20;100343.88;1719252;82;21491;-48
2021/06/06 00:36:08;;;;;;;11.03;9.90;;;;;;;16.16;75.19;100344.48;1684276;83;20944;-48
2021/06/06 00:38:34;;;;;;;13.70;8.35;;;;;;;16.13;75.27;100340.22;1717431;82;21014;-48
2021/06/06 00:41:03;;;;;;;10.85;9.28;;;;;;;16.10;75.18;100336.91;1714537;82;20988;-49
2021/06/06 00:43:30;;;;;;;9.38;7.47;;;;;;;16.07;75.25;100339.38;1720272;82;20953;-49
2021/06/06 00:45:57;;;;;;;10.38;8.45;;;;;;;16.04;75.36;100332.91;1718033;82;20978;-51
2021/06/06 00:48:24;;;;;;;8.90;7.40;;;;;;;16.02;75.10;100329.48;1740345;82;20941;-47
2021/06/06 00:50:58;;;;;;;8.20;7.03;;;;;;;16.01;74.84;100334.52;1707091;82;20936;-49
2021/06/06 00:53:31;;;;;;;10.10;8.65;;;;;;;15.96;74.58;100330.02;1717410;82;20959;-48
2021/06/06 00:55:57;;;;;;;9.45;7.37;;;;;;;15.92;74.51;100324.52;1721668;82;20956;-52
2021/06/06 00:58:24;;;;;;;10.53;7.70;;;;;;;15.89;74.24;100327.47;1708670;83;20972;-45
2021/06/06 01:00:53;;;;;;;8.15;7.35;;;;;;;15.86;74.17;100327.23;1695494;82;21016;-48
2021/06/06 01:03:23;;;;;;;50.83;44.05;;;;;;;15.84;74.32;100325.16;1718685;82;20929;-47
2021/06/06 01:05:59;;;;;;;19.17;15.28;;;;;;;15.81;74.16;100326.77;1719477;82;20956;-47
2021/06/06 01:08:32;;;;;;;12.58;9.65;;;;;;;15.77;74.42;100323.49;1721343;82;21472;-48
2021/06/06 01:11:37;;;;;;;11.33;7.85;;;;;;;15.75;74.53;100322.76;1689763;83;21069;-47
2021/06/06 01:14:20;;;;;;;10.50;8.15;;;;;;;15.74;74.36;100322.37;1720172;82;20976;-48
2021/06/06 01:17:13;;;;;;;9.18;7.85;;;;;;;15.70;74.70;100321.41;1722759;82;20960;-48
2021/06/06 01:19:55;;;;;;;10.50;8.08;;;;;;;15.67;74.83;100321.63;1703442;81;21542;-47
2021/06/06 01:22:43;;;;;;;9.63;7.90;;;;;;;15.63;74.79;100322.39;1736192;80;21480;-49
2021/06/06 01:25:24;;;;;;;11.05;7.75;;;;;;;15.59;74.94;100320.42;1738564;80;20988;-48
2021/06/06 01:28:01;;;;;;;8.20;6.97;;;;;;;15.56;74.95;100322.02;1711859;82;20973;-51
2021/06/06 01:30:32;;;;;;;9.63;7.90;;;;;;;15.51;75.02;100324.73;1729154;81;20964;-48
2021/06/06 01:33:08;;;;;;;9.50;8.43;;;;;;;15.46;75.28;100321.56;1700113;81;20976;-48
2021/06/06 01:36:01;;;;;;;8.10;7.17;;;;;;;15.40;75.50;100321.58;1743040;80;21605;-49
2021/06/06 01:38:36;;;;;;;10.98;7.67;;;;;;;15.37;75.81;100320.46;1742453;80;20992;-47
2021/06/06 01:41:10;;;;;;;9.85;7.05;;;;;;;15.34;76.07;100322.06;1713303;81;20944;-47
2021/06/06 01:43:40;;;;;;;8.33;7.03;;;;;;;15.32;76.31;100317.30;1720343;81;21480;-51
2021/06/06 01:46:13;;;;;;;10.25;7.08;;;;;;;15.31;76.48;100313.77;1725737;80;21288;-48
2021/06/06 01:48:42;;;;;;;8.48;7.08;;;;;;;15.32;76.83;100314.61;1716210;81;20975;-53
2021/06/06 01:51:28;;;;;;;8.30;7.05;;;;;;;15.31;77.06;100316.45;1711718;82;20928;-53
2021/06/06 01:53:55;;;;;;;9.98;7.25;;;;;;;15.33;77.42;100312.31;1746105;81;20968;-48
2021/06/06 01:56:29;;;;;;;15.88;13.13;;;;;;;15.36;77.83;100310.21;1736232;80;20991;-49
2021/06/06 01:58:57;;;;;;;11.43;9.85;;;;;;;15.37;78.12;100312.41;1743754;80;21004;-46
2021/06/06 02:01:25;;;;;;;14.28;8.05;;;;;;;15.39;78.49;100317.66;1747313;80;21000;-46
2021/06/06 02:03:56;;;;;;;8.53;7.60;;;;;;;15.37;78.60;100313.75;1688739;82;20995;-46
2021/06/06 02:06:30;;;;;;;7.50;6.70;;;;;;;15.37;78.61;100317.77;1747292;81;21730;-46
2021/06/06 02:08:59;;;;;;;9.53;7.62;;;;;;;15.36;78.96;100318.77;1713125;82;20997;-46
2021/06/06 02:11:38;;;;;;;8.50;7.28;;;;;;;15.37;79.18;100320.46;1744155;80;20952;-46
2021/06/06 02:14:14;;;;;;;9.40;7.53;;;;;;;15.38;79.05;100321.34;1712365;82;20956;-48
2021/06/06 02:16:46;;;;;;;9.65;6.87;;;;;;;15.36;79.08;100323.64;1687967;83;20988;-48
2021/06/06 02:19:24;;;;;;;8.18;7.33;;;;;;;15.34;79.30;100320.22;1678349;83;21015;-48
2021/06/06 02:21:58;;;;;;;9.00;7.17;;;;;;;15.35;79.75;100320.61;1679594;83;20996;-47
2021/06/06 02:24:27;;;;;;;7.78;6.78;;;;;;;15.36;79.98;100326.33;1668397;83;21411;-50
2021/06/06 02:27:07;;;;;;;9.68;8.15;;;;;;;15.39;80.49;100329.75;1680299;84;20968;-47
2021/06/06 02:30:18;;;;;;;9.23;8.18;;;;;;;15.42;80.91;100330.84;1685318;84;20968;-46
2021/06/06 02:33:29;;;;;;;10.05;7.22;;;;;;;15.44;80.91;100332.92;1674788;84;21579;-49
2021/06/06 02:36:00;;;;;;;11.48;7.35;;;;;;;15.46;80.51;100335.00;1675427;84;20986;-48
2021/06/06 02:38:39;;;;;;;11.80;7.92;;;;;;;15.46;79.64;100330.47;1655664;85;20924;-48
2021/06/06 02:41:15;;;;;;;9.98;6.92;;;;;;;15.47;78.87;100331.32;1716843;82;20992;-49
2021/06/06 02:43:57;;;;;;;7.97;6.65;;;;;;;15.46;78.10;100337.19;1718157;82;21000;-45
2021/06/06 02:46:24;;;;;;;7.72;6.50;;;;;;;15.47;77.58;100335.35;1705441;82;20960;-48
2021/06/06 02:49:04;;;;;;;12.15;7.90;;;;;;;15.46;77.08;100340.38;1722047;82;20968;-48
2021/06/06 02:51:34;;;;;;;9.88;6.80;;;;;;;15.45;76.91;100339.52;1717924;82;20964;-48
2021/06/06 02:54:08;;;;;;;10.25;7.78;;;;;;;15.45;77.07;100333.30;1660929;83;21562;-48
2021/06/06 02:56:48;;;;;;;15.18;9.98;;;;;;;15.45;77.34;100331.96;1701149;82;20964;-47
2021/06/06 02:59:25;;;;;;;23.42;17.30;;;;;;;15.45;77.58;100335.99;1718599;81;21420;-50
2021/06/06 03:01:59;;;;;;;15.88;11.48;;;;;;;15.45;77.60;100335.99;1700122;82;20999;-53
2021/06/06 03:04:30;;;;;;;14.83;10.50;;;;;;;15.45;77.87;100334.64;1693366;82;21387;-49
2021/06/06 03:07:04;;;;;;;12.58;11.12;;;;;;;15.44;78.00;100339.64;1717968;82;20953;-49
2021/06/06 03:09:33;;;;;;;11.00;9.00;;;;;;;15.44;78.21;100349.04;1693519;83;20996;-50
2021/06/06 03:12:03;;;;;;;14.50;9.05;;;;;;;15.44;78.86;100352.58;1720934;82;20948;-46
2021/06/06 03:14:32;;;;;;;13.05;8.73;;;;;;;15.45;78.93;100354.30;1716490;82;20995;-50
2021/06/06 03:17:10;;;;;;;10.45;8.68;;;;;;;15.45;78.95;100350.77;1712334;82;20954;-45
2021/06/06 03:19:41;;;;;;;10.15;8.28;;;;;;;15.44;78.93;100347.20;1715249;82;20999;-47
2021/06/06 03:22:14;;;;;;;11.35;9.58;;;;;;;15.44;79.20;100346.35;1716532;82;20981;-47
2021/06/06 03:24:58;;;;;;;13.43;10.15;;;;;;;15.44;79.44;100341.83;1723221;81;21012;-48
2021/06/06 03:27:28;;;;;;;10.80;8.98;;;;;;;15.45;79.93;100346.73;1695921;83;20952;-46
2021/06/06 03:30:36;;;;;;;11.60;9.08;;;;;;;15.44;80.39;100347.20;1634005;85;20959;-46
2021/06/06 03:33:10;;;;;;;10.15;8.03;;;;;;;15.46;80.69;100354.66;1646977;84;21024;-47
2021/06/06 03:35:37;;;;;;;11.45;7.55;;;;;;;15.46;81.24;100359.18;1660951;84;20992;-46
2021/06/06 03:38:05;;;;;;;10.88;7.65;;;;;;;15.44;81.48;100359.29;1678042;84;20996;-48
2021/06/06 03:40:36;;;;;;;10.50;7.15;;;;;;;15.45;81.86;100361.52;1678619;83;21665;-48
2021/06/06 03:43:10;;;;;;;9.13;7.60;;;;;;;15.44;82.23;100355.75;1664782;84;21472;-50
2021/06/06 03:45:39;;;;;;;10.40;7.62;;;;;;;15.46;82.56;100360.52;1663800;84;21571;-49
2021/06/06 03:48:07;;;;;;;11.12;7.80;;;;;;;15.48;82.99;100353.20;1632692;84;20965;-50
2021/06/06 03:50:35;;;;;;;8.38;7.30;;;;;;;15.49;83.42;100359.77;1662860;84;21001;-48
2021/06/06 03:53:02;;;;;;;9.38;7.85;;;;;;;15.50;83.86;100362.00;1656461;85;21011;-52
2021/06/06 03:55:29;;;;;;;11.33;7.45;;;;;;;15.49;84.13;100357.58;1658926;85;21019;-49
2021/06/06 03:57:57;;;;;;;14.40;8.45;;;;;;;15.51;84.04;100361.00;1655830;85;20987;-45
2021/06/06 04:00:30;;;;;;;10.72;8.20;;;;;;;15.51;83.64;100355.63;1653039;85;21548;-50
2021/06/06 04:03:00;;;;;;;9.83;7.92;;;;;;;15.50;83.52;100357.47;1655058;85;21024;-48
2021/06/06 04:05:29;;;;;;;9.18;7.15;;;;;;;15.47;83.64;100349.66;1651840;85;20980;-52
2021/06/06 04:07:55;;;;;;;11.05;7.05;;;;;;;15.46;83.59;100358.69;1655318;85;21548;-51
2021/06/06 04:10:23;;;;;;;9.50;6.97;;;;;;;15.47;83.37;100356.38;1632610;84;21308;-53
2021/06/06 04:12:51;;;;;;;9.28;6.47;;;;;;;15.50;83.19;100358.81;1642487;84;21058;-47
2021/06/06 04:15:20;;;;;;;10.68;8.43;;;;;;;15.52;83.26;100358.67;1681365;84;21916;-48
2021/06/06 04:17:47;;;;;;;8.88;7.67;;;;;;;15.54;83.15;100356.72;1683502;84;20983;-47
2021/06/06 04:20:16;;;;;;;10.13;7.83;;;;;;;15.57;83.21;100361.84;1659467;85;20999;-46
2021/06/06 04:22:44;;;;;;;13.65;8.20;;;;;;;15.58;83.18;100355.50;1667223;84;20977;-46
2021/06/06 04:25:13;;;;;;;10.13;8.18;;;;;;;15.61;83.43;100352.56;1669109;83;21032;-47
2021/06/06 04:27:40;;;;;;;10.88;8.00;;;;;;;15.62;83.22;100354.25;1679969;83;20976;-46
2021/06/06 04:30:09;;;;;;;7.95;7.08;;;;;;;15.63;82.93;100351.10;1739797;80;21237;-47
2021/06/06 04:32:36;;;;;;;8.00;6.70;;;;;;;15.66;82.22;100354.38;1722087;81;20973;-46
2021/06/06 04:35:06;;;;;;;8.65;7.00;;;;;;;15.69;81.82;100347.44;1741675;80;20965;-46
2021/06/06 04:37:33;;;;;;;9.95;7.42;;;;;;;15.71;81.49;100356.73;1743991;80;21468;-52
2021/06/06 04:40:05;;;;;;;8.60;6.87;;;;;;;15.74;81.45;100354.63;1722106;81;20984;-50
2021/06/06 04:42:33;;;;;;;8.93;6.85;;;;;;;15.78;81.64;100352.56;1729387;81;20968;-47
2021/06/06 04:45:00;;;;;;;8.65;7.45;;;;;;;15.83;82.06;100355.73;1730460;80;20964;-48
2021/06/06 04:47:27;;;;;;;9.58;6.90;;;;;;;15.87;82.13;100353.13;1744852;80;21334;-47
2021/06/06 04:49:56;;;;;;;9.23;7.67;;;;;;;15.90;81.83;100348.86;1718934;82;20992;-47
2021/06/06 04:52:22;;;;;;;10.60;7.20;;;;;;;15.96;81.51;100348.34;1706760;82;21495;-48
2021/06/06 04:54:51;;;;;;;9.43;7.12;;;;;;;16.01;80.99;100352.00;1740819;81;20976;-47
2021/06/06 04:57:17;;;;;;;8.75;6.90;;;;;;;16.05;80.18;100348.55;1739282;81;21021;-47
2021/06/06 04:59:47;;;;;;;8.55;7.00;;;;;;;16.09;79.48;100354.05;1738163;81;20972;-46
2021/06/06 05:02:15;;;;;;;7.90;6.78;;;;;;;16.13;78.88;100355.02;1745507;80;21693;-47
2021/06/06 05:04:45;;;;;;;8.10;6.25;;;;;;;16.18;78.92;100355.48;1739157;81;20963;-46
2021/06/06 05:07:12;;;;;;;9.38;6.45;;;;;;;16.25;79.29;100349.07;1740075;80;21004;-45
2021/06/06 05:09:41;;;;;;;10.08;5.80;;;;;;;16.32;78.60;100358.84;1723307;81;20980;-46
2021/06/06 05:12:10;;;;;;;6.85;6.03;;;;;;;16.36;77.71;100351.73;1738913;81;21016;-46
2021/06/06 05:14:38;;;;;;;9.33;5.28;;;;;;;16.40;77.66;100350.49;1717454;81;20960;-46
2021/06/06 05:17:05;;;;;;;9.18;4.47;;;;;;;16.46;77.63;100345.08;1745664;80;21004;-46
2021/06/06 05:19:35;;;;;;;9.40;6.12;;;;;;;16.52;76.86;100350.42;1740652;81;20904;-56
2021/06/06 05:22:04;;;;;;;6.55;5.17;;;;;;;16.58;76.36;100343.15;1711262;82;21551;-43
2021/06/06 05:24:33;;;;;;;9.38;5.35;;;;;;;16.63;75.25;100345.83;1717765;80;20976;-45
2021/06/06 05:27:00;;;;;;;6.85;5.03;;;;;;;16.68;74.63;100351.30;1742663;80;20955;-46
2021/06/06 05:29:26;;;;;;;6.22;3.98;;;;;;;16.72;74.91;100351.41;1739612;80;20944;-46
2021/06/06 05:31:53;;;;;;;7.90;3.90;;;;;;;16.77;75.33;100352.70;1738070;80;21024;-48
2021/06/06 05:34:20;;;;;;;5.80;3.42;;;;;;;16.82;73.78;100344.27;1740990;81;21807;-55
2021/06/06 05:36:46;;;;;;;8.50;5.45;;;;;;;16.84;73.31;100349.88;1740510;81;20971;-45
2021/06/06 05:39:14;;;;;;;7.37;3.52;;;;;;;16.88;73.31;100354.48;1720523;81;20920;-48
2021/06/06 05:41:40;;;;;;;5.17;3.45;;;;;;;16.91;73.25;100354.25;1744368;80;20956;-46
2021/06/06 05:44:08;;;;;;;7.78;3.67;;;;;;;16.94;72.84;100354.47;1733224;81;21571;-48
2021/06/06 05:46:36;;;;;;;5.50;3.35;;;;;;;16.95;72.46;100346.24;1714576;82;21456;-48
2021/06/06 05:49:03;;;;;;;4.12;3.02;;;;;;;16.98;72.48;100348.66;1739214;81;20987;-47
2021/06/06 05:51:30;;;;;;;6.50;2.80;;;;;;;17.00;72.72;100344.00;1738902;80;20997;-49
2021/06/06 05:54:05;;;;;;;8.33;2.87;;;;;;;17.05;72.95;100347.14;1743554;81;20944;-51
2021/06/06 05:56:32;;;;;;;5.03;3.75;;;;;;;17.08;72.97;100350.06;1744596;80;20912;-50
2021/06/06 05:59:00;;;;;;;5.10;3.40;;;;;;;17.12;72.47;100347.47;1741880;81;21539;-50
2021/06/06 06:01:28;;;;;;;4.85;3.08;;;;;;;17.17;72.10;100349.77;1736068;80;21059;-48
2021/06/06 06:03:56;;;;;;;4.03;2.67;;;;;;;17.20;71.23;100346.79;1741313;81;21475;-49
2021/06/06 06:06:23;;;;;;;7.50;3.02;;;;;;;17.22;71.08;100347.52;1744390;81;20968;-50
2021/06/06 06:08:50;;;;;;;3.52;2.62;;;;;;;17.24;70.67;100350.43;1743673;80;21023;-51
2021/06/06 06:11:18;;;;;;;4.70;2.42;;;;;;;17.25;70.84;100349.92;1736381;80;20936;-51
2021/06/06 06:13:47;;;;;;;8.00;2.80;;;;;;;17.25;71.24;100349.42;1737905;80;20932;-51
2021/06/06 06:16:17;;;;;;;4.05;2.30;;;;;;;17.27;71.19;100349.30;1738757;80;21269;-50
2021/06/06 06:18:45;;;;;;;6.10;2.47;;;;;;;17.28;72.52;100347.80;1735991;81;21780;-47
2021/06/06 06:21:14;;;;;;;3.20;2.20;;;;;;;17.32;72.98;100355.13;1740116;80;21800;-46
2021/06/06 06:23:43;;;;;;;3.65;1.80;;;;;;;17.34;72.07;100352.28;1713598;81;20980;-48
2021/06/06 06:26:11;;;;;;;5.33;2.77;;;;;;;17.37;71.60;100352.88;1738865;80;20971;-47
2021/06/06 06:28:42;;;;;;;4.83;2.30;;;;;;;17.39;71.35;100352.26;1738029;81;20998;-47
2021/06/06 06:31:10;;;;;;;5.35;2.22;;;;;;;17.43;71.13;100345.58;1737831;80;21624;-47
2021/06/06 06:33:45;;;;;;;3.58;2.27;;;;;;;17.46;71.94;100345.80;1734238;80;20964;-47
2021/06/06 06:36:15;;;;;;;6.40;3.22;;;;;;;17.49;71.22;100339.66;1739054;80;21023;-46
2021/06/06 06:38:45;;;;;;;4.95;2.80;;;;;;;17.53;70.63;100341.07;1739562;81;20972;-45
2021/06/06 06:41:33;;;;;;;7.42;3.10;;;;;;;17.58;70.40;100345.20;1706899;82;21024;-46
2021/06/06 06:44:15;;;;;;;7.10;2.80;;;;;;;17.62;69.96;100341.26;1598161;88;21133;-46
2021/06/06 06:46:42;;;;;;;2.98;2.10;;;;;;;17.67;69.48;100332.26;1631098;86;21062;-48
2021/06/06 06:49:11;;;;;;;4.08;2.55;;;;;;;17.70;69.35;100341.41;1632399;86;21090;-46
2021/06/06 06:51:37;;;;;;;5.03;2.90;;;;;;;17.72;68.55;100338.93;1634547;86;21553;-45
2021/06/06 06:54:05;;;;;;;4.33;2.50;;;;;;;17.74;68.92;100335.61;1631298;86;20995;-46
2021/06/06 06:56:32;;;;;;;7.70;3.55;;;;;;;17.77;68.61;100337.17;1632380;86;21023;-49
2021/06/06 06:59:00;;;;;;;4.30;2.27;;;;;;;17.81;68.86;100335.06;1635469;86;21008;-46
2021/06/06 07:01:27;;;;;;;3.75;2.40;;;;;;;17.87;68.95;100334.02;1633764;85;21066;-47
2021/06/06 07:03:55;;;;;;;4.87;2.60;;;;;;;17.91;67.86;100331.38;1611040;87;21566;-45
2021/06/06 07:06:22;;;;;;;6.10;2.15;;;;;;;17.97;66.66;100331.34;1629079;86;20987;-48
2021/06/06 07:08:49;;;;;;;4.45;2.15;;;;;;;18.00;66.12;100328.35;1631599;86;21051;-46
2021/06/06 07:11:20;;;;;;;4.20;1.90;;;;;;;18.03;65.97;100328.06;1632887;86;21578;-47
2021/06/06 07:13:48;;;;;;;3.67;2.37;;;;;;;18.07;65.45;100330.00;1629191;86;21547;-46
2021/06/06 07:16:17;;;;;;;4.35;1.77;;;;;;;18.11;64.70;100332.75;1630618;86;20991;-46
2021/06/06 07:18:46;;;;;;;7.50;1.77;;;;;;;18.11;63.53;100322.80;1631054;86;21553;-49
2021/06/06 07:21:19;;;;;;;2.83;1.72;;;;;;;18.14;63.06;100323.02;1633186;86;21006;-46
2021/06/06 07:23:45;;;;;;;4.55;1.90;;;;;;;18.18;62.86;100324.95;1635211;85;21029;-45
2021/06/06 07:26:21;;;;;;;3.47;2.10;;;;;;;18.20;62.54;100326.52;1640849;85;21032;-46
2021/06/06 07:28:49;;;;;;;4.08;1.70;;;;;;;18.20;61.85;100326.52;1629465;86;20979;-48
2021/06/06 07:31:17;;;;;;;6.15;1.92;;;;;;;18.19;61.72;100320.74;1630180;85;21030;-45
2021/06/06 07:33:44;;;;;;;4.72;1.70;;;;;;;18.21;62.81;100326.85;1634731;86;20987;-48
2021/06/06 07:36:15;;;;;;;4.97;1.67;;;;;;;18.24;63.57;100326.56;1633030;86;20967;-51
2021/06/06 07:38:43;;;;;;;4.58;1.92;;;;;;;18.30;63.38;100325.16;1635588;86;21035;-51
2021/06/06 07:41:12;;;;;;;3.47;1.70;;;;;;;18.36;63.48;100321.87;1635799;86;21038;-51
2021/06/06 07:43:40;;;;;;;4.55;2.47;;;;;;;18.43;64.47;100332.95;1626066;85;21495;-54
2021/06/06 07:46:07;;;;;;;5.00;2.02;;;;;;;18.48;63.15;100329.33;1639001;86;21520;-46
2021/06/06 07:48:34;;;;;;;4.55;2.20;;;;;;;18.49;60.63;100324.27;1631283;86;21584;-49
2021/06/06 07:51:01;;;;;;;5.67;2.05;;;;;;;18.47;60.53;100325.78;1629738;86;21014;-53
2021/06/06 07:53:29;;;;;;;3.80;1.77;;;;;;;18.48;61.93;100334.73;1633474;86;20975;-53
2021/06/06 07:55:56;;;;;;;3.02;1.52;;;;;;;18.50;61.64;100333.59;1631315;86;21022;-47
2021/06/06 07:58:27;;;;;;;3.20;2.05;;;;;;;18.50;61.88;100330.05;1638122;85;21535;-52
2021/06/06 08:00:53;;;;;;;6.85;2.20;;;;;;;18.48;62.89;100337.42;1722773;81;20959;-47
2021/06/06 08:03:20;;;;;;;2.92;1.80;;;;;;;18.47;64.10;100337.05;1742094;81;21518;-42
2021/06/06 08:05:48;;;;;;;3.72;2.00;;;;;;;18.44;64.36;100334.14;1741027;80;21608;-47
2021/06/06 08:08:15;;;;;;;4.95;1.80;;;;;;;18.42;66.22;100338.86;1742548;80;21096;-44
2021/06/06 08:10:47;;;;;;;7.10;2.22;;;;;;;18.41;67.21;100341.19;1736996;80;21432;-44
2021/06/06 08:13:15;;;;;;;4.58;2.10;;;;;;;18.42;68.70;100343.38;1743431;81;20992;-46
2021/06/06 08:15:44;;;;;;;3.52;2.22;;;;;;;18.44;70.08;100348.98;1740088;81;20948;-43
2021/06/06 08:18:16;;;;;;;4.20;2.15;;;;;;;18.45;70.55;100353.92;1708883;82;20929;-54
2021/06/06 08:20:49;;;;;;;3.20;1.85;;;;;;;18.47;71.68;100353.25;1744681;81;20980;-49
2021/06/06 08:23:16;;;;;;;2.70;1.62;;;;;;;18.47;71.84;100359.53;1748202;80;21454;-45
2021/06/06 08:25:43;;;;;;;3.85;1.82;;;;;;;18.47;71.41;100362.70;1736574;81;20948;-51
2021/06/06 08:28:11;;;;;;;3.60;1.98;;;;;;;18.46;70.99;100358.31;1742869;80;21453;-53
2021/06/06 08:30:45;;;;;;;2.90;1.90;;;;;;;18.45;70.18;100359.31;1714716;81;20952;-50
2021/06/06 08:33:12;;;;;;;4.87;2.20;;;;;;;18.42;69.63;100360.92;1721758;82;21590;-46
2021/06/06 08:35:41;;;;;;;3.30;2.10;;;;;;;18.40;69.96;100369.69;1717553;82;20992;-52
2021/06/06 08:38:09;;;;;;;4.72;3.35;;;;;;;18.37;69.82;100366.28;1714602;82;21012;-49
2021/06/06 08:41:02;;;;;;;4.30;2.47;;;;;;;18.37;70.02;100373.03;1713824;82;21900;-52
2021/06/06 08:43:55;;;;;;;3.12;1.82;;;;;;;18.36;70.21;100369.11;1716391;82;20996;-51
2021/06/06 08:46:23;;;;;;;6.60;2.10;;;;;;;18.37;70.40;100377.58;1708887;82;20982;-53
2021/06/06 08:48:51;;;;;;;2.00;1.50;;;;;;;18.34;70.06;100370.62;1714482;82;21401;-48
2021/06/06 08:51:48;;;;;;;1.57;1.37;;;;;;;18.34;69.65;100369.27;1717943;82;21467;-48
2021/06/06 08:54:41;;;;;;;3.50;1.70;;;;;;;18.35;69.67;100370.95;1713490;82;20941;-50
2021/06/06 08:57:32;;;;;;;4.47;1.40;;;;;;;18.38;69.99;100372.02;1701599;82;20989;-51
2021/06/06 08:59:59;;;;;;;4.72;1.67;;;;;;;18.41;70.02;100368.18;1710862;82;21045;-50
2021/06/06 09:02:47;;;;;;;2.35;1.32;;;;;;;18.44;69.66;100369.74;1711048;82;21733;-49
2021/06/06 09:05:32;;;;;;;2.80;1.37;;;;;;;18.45;69.58;100368.77;1714201;82;20993;-45
2021/06/06 09:08:00;;;;;;;2.47;1.37;;;;;;;18.47;69.45;100373.03;1705824;82;20937;-46
2021/06/06 09:10:33;;;;;;;2.20;1.00;;;;;;;18.50;68.99;100369.19;1654007;85;21063;-45
2021/06/06 09:13:02;;;;;;;5.35;1.35;;;;;;;18.51;68.84;100367.67;1661790;84;21037;-45
2021/06/06 09:15:28;;;;;;;2.20;1.20;;;;;;;18.53;69.24;100364.84;1658085;84;21397;-44
2021/06/06 09:17:57;;;;;;;2.02;1.17;;;;;;;18.55;68.75;100362.35;1658723;85;20934;-45
2021/06/06 09:20:40;;;;;;;2.83;1.10;;;;;;;18.56;67.36;100359.15;1650638;85;20985;-53
2021/06/06 09:23:18;;;;;;;3.40;1.50;;;;;;;18.59;66.87;100354.80;1663367;84;20973;-47
2021/06/06 09:25:48;;;;;;;2.83;1.30;;;;;;;18.64;67.06;100351.67;1672138;83;21491;-49
2021/06/06 09:28:23;;;;;;;1.45;1.00;;;;;;;18.68;67.16;100354.45;1660125;85;20965;-55
2021/06/06 09:31:17;;;;;;;4.20;1.47;;;;;;;18.71;66.01;100349.59;1677505;84;21008;-46
2021/06/06 09:33:55;;;;;;;1.87;1.32;;;;;;;18.75;65.19;100346.13;1736639;81;20968;-57
2021/06/06 09:36:37;;;;;;;2.08;1.60;;;;;;;18.77;64.02;100346.37;1736824;80;21004;-51
2021/06/06 09:39:09;;;;;;;1.80;1.20;;;;;;;18.80;63.39;100349.27;1739766;80;20967;-51
2021/06/06 09:41:45;;;;;;;2.15;1.45;;;;;;;18.81;63.66;100347.76;1691683;83;21040;-52
2021/06/06 09:44:26;;;;;;;3.33;1.20;;;;;;;18.85;63.67;100344.76;1737342;81;21440;-53
2021/06/06 09:47:10;;;;;;;2.12;1.50;;;;;;;18.86;63.40;100345.97;1745341;80;20976;-46
2021/06/06 09:49:46;;;;;;;2.98;1.45;;;;;;;18.85;62.64;100343.41;1738405;81;21595;-52
2021/06/06 09:52:23;;;;;;;3.75;1.85;;;;;;;18.86;62.96;100347.83;1733074;81;20965;-48
2021/06/06 09:54:54;;;;;;;2.77;1.60;;;;;;;18.88;63.65;100345.84;1736501;81;21008;-48
2021/06/06 09:57:27;;;;;;;5.12;2.62;;;;;;;18.90;63.82;100347.39;1744664;80;20972;-48
2021/06/06 10:00:16;;;;;;;5.03;2.00;;;;;;;18.93;63.80;100350.30;1738619;81;20945;-47
2021/06/06 10:02:53;;;;;;;4.42;1.50;;;;;;;18.95;64.13;100345.58;1737495;80;21103;-49
2021/06/06 10:05:35;;;;;;;4.85;1.62;;;;;;;18.97;65.02;100347.64;1741260;81;20999;-49
2021/06/06 10:08:21;;;;;;;2.45;1.72;;;;;;;18.96;66.15;100345.44;1741179;80;21104;-46
2021/06/06 10:10:54;;;;;;;3.77;1.85;;;;;;;18.95;68.09;100345.11;1727132;81;20966;-49
2021/06/06 10:13:29;;;;;;;4.05;2.22;;;;;;;18.93;69.03;100343.55;1735257;80;20988;-49
2021/06/06 10:15:59;;;;;;;3.62;1.65;;;;;;;18.92;69.75;100340.48;1734138;81;20984;-53
2021/06/06 10:18:44;;;;;;;3.20;1.85;;;;;;;18.91;71.16;100336.92;1713877;81;21505;-52
2021/06/06 10:21:22;;;;;;;5.85;2.12;;;;;;;18.91;72.14;100337.44;1740179;80;20936;-50
2021/06/06 10:23:56;;;;;;;5.83;3.20;;;;;;;18.89;72.71;100336.72;1740328;81;21060;-54
2021/06/06 10:26:34;;;;;;;4.70;2.40;;;;;;;18.86;72.62;100334.33;1739592;80;20951;-46
2021/06/06 10:29:35;;;;;;;6.05;2.20;;;;;;;18.81;71.80;100331.55;1737740;81;20983;-44
2021/06/06 10:32:12;;;;;;;5.10;2.27;;;;;;;18.79;72.02;100325.94;1743353;80;20941;-44
2021/06/06 10:34:58;;;;;;;9.35;3.70;;;;;;;18.76;72.45;100327.09;1754876;81;21574;-42
2021/06/06 10:37:26;;;;;;;4.87;2.58;;;;;;;18.75;73.13;100324.52;1753594;80;20934;-46
2021/06/06 10:40:00;;;;;;;4.42;2.20;;;;;;;18.77;74.70;100320.70;1753796;80;21038;-47
2021/06/06 10:42:37;;;;;;;2.95;2.12;;;;;;;18.79;76.10;100320.03;1752278;80;20951;-49
2021/06/06 10:45:28;;;;;;;3.58;2.12;;;;;;;18.79;75.44;100312.44;1748983;80;21434;-49
2021/06/06 10:48:20;;;;;;;4.15;3.35;;;;;;;18.80;75.39;100312.30;1701621;83;20987;-53
2021/06/06 10:50:51;;;;;;;3.62;2.35;;;;;;;18.83;74.99;100303.56;1693775;83;21542;-48
2021/06/06 10:53:24;;;;;;;4.67;1.80;;;;;;;18.85;74.65;100298.84;1698287;83;21537;-56
2021/06/06 10:56:17;;;;;;;3.10;2.08;;;;;;;18.86;74.13;100299.20;1694020;83;21001;-51
2021/06/06 10:58:55;;;;;;;4.35;2.00;;;;;;;18.88;74.04;100295.87;1693337;83;21092;-47
2021/06/06 11:01:32;;;;;;;2.45;1.70;;;;;;;18.92;73.83;100289.15;1696937;83;21496;-48
2021/06/06 11:04:14;;;;;;;4.45;1.60;;;;;;;18.96;73.02;100281.11;1694078;83;20962;-47
2021/06/06 11:06:47;;;;;;;4.05;1.85;;;;;;;19.02;72.65;100283.20;1672130;83;21016;-47
2021/06/06 11:09:29;;;;;;;2.10;1.67;;;;;;;19.06;71.13;100270.27;1697114;83;21343;-46
2021/06/06 11:12:09;;;;;;;4.15;2.77;;;;;;;19.12;68.85;100266.95;1674791;83;20997;-50
2021/06/06 11:14:46;;;;;;;2.00;1.60;;;;;;;19.18;68.26;100265.02;1696699;83;21007;-53
2021/06/06 11:17:34;;;;;;;5.30;1.87;;;;;;;19.24;68.09;100257.14;1693740;83;21423;-52
2021/06/06 11:20:30;;;;;;;5.03;3.45;;;;;;;19.33;67.57;100254.55;1695455;83;21561;-54
2021/06/06 11:22:58;;;;;;;3.90;2.17;;;;;;;19.40;65.92;100246.16;1696138;83;20960;-52
2021/06/06 11:25:32;;;;;;;2.50;1.62;;;;;;;19.46;64.11;100240.16;1720115;80;20967;-53
2021/06/06 11:28:03;;;;;;;2.62;1.62;;;;;;;19.51;63.05;100238.35;1758073;80;20949;-49
2021/06/06 11:30:35;;;;;;;3.20;1.65;;;;;;;19.54;62.86;100230.77;1759935;80;21378;-55
2021/06/06 11:33:09;;;;;;;5.12;1.98;;;;;;;19.60;63.21;100230.14;1736569;80;21043;-51
2021/06/06 11:35:41;;;;;;;3.17;1.90;;;;;;;19.67;64.14;100233.13;1718736;82;20976;-56
2021/06/06 11:38:29;;;;;;;2.65;1.60;;;;;;;19.75;63.79;100231.00;1714663;82;20977;-56
2021/06/06 11:41:09;;;;;;;2.55;1.87;;;;;;;19.81;62.79;100232.59;1709276;82;21470;-49
2021/06/06 11:43:48;;;;;;;4.15;2.37;;;;;;;19.86;62.24;100227.56;1705147;82;20992;-50
2021/06/06 11:46:20;;;;;;;3.67;1.95;;;;;;;19.92;61.83;100225.23;1700891;82;20992;-53
2021/06/06 11:49:18;;;;;;;4.15;1.72;;;;;;;19.97;61.48;100216.15;1711676;82;21512;-50
2021/06/06 11:51:47;;;;;;;4.20;1.77;;;;;;;20.01;61.44;100218.39;1635170;86;21551;-52